Time;durP1;ratioP1;P1;durP2;ratioP2;P2;SDS_P1;SDS_P2;PMS_P1;PMS_P2;Temp;Humidity;BMP_temperature;BMP_pressure;BME280_temperature;BME280_humidity;BME280_pressure;Samples;Min_cycle;Max_cycle;Signal;HPM_P1;HPM_P2
2023/07/09 00:00:06;;;;;;;;;;;26.40;54.50;;;;;;5065394;28;19991;-55
2023/07/09 00:02:31;;;;;;;;;;;26.40;54.50;;;;;;5071699;28;20292;-55
2023/07/09 00:04:57;;;;;;;;;;;26.40;54.60;;;;;;5066200;28;20003;-54
2023/07/09 00:07:24;;;;;;;;;;;26.40;54.50;;;;;;5052317;28;19916;-55
2023/07/09 00:09:50;;;;;;;;;;;26.40;54.50;;;;;;5051287;28;19939;-54
2023/07/09 00:12:16;;;;;;;;;;;26.40;54.50;;;;;;5063453;28;19916;-54
2023/07/09 00:14:41;;;;;;;;;;;26.40;54.50;;;;;;5072874;28;19915;-54
2023/07/09 00:17:26;;;;;;;;;;;26.30;54.50;;;;;;5067310;28;19958;-54
2023/07/09 00:19:52;;;;;;;;;;;26.40;54.50;;;;;;5071493;28;20331;-54
2023/07/09 00:22:17;;;;;;;;;;;26.40;54.50;;;;;;5058021;28;20016;-54
2023/07/09 00:24:44;;;;;;;;;;;26.30;54.50;;;;;;5070010;28;19963;-54
2023/07/09 00:27:10;;;;;;;;;;;26.30;54.40;;;;;;5072560;28;19951;-54
2023/07/09 00:29:35;;;;;;;;;;;26.30;54.40;;;;;;5054062;28;20363;-54
2023/07/09 00:32:01;;;;;;;;;;;26.30;54.50;;;;;;5059197;28;19943;-54
2023/07/09 00:34:26;;;;;;;;;;;26.30;54.50;;;;;;5061956;28;19916;-55
2023/07/09 00:36:53;;;;;;;;;;;26.30;54.40;;;;;;5051899;28;19947;-54
2023/07/09 00:39:19;;;;;;;;;;;26.30;54.50;;;;;;5062490;28;19924;-54
2023/07/09 00:41:46;;;;;;;;;;;26.30;54.30;;;;;;5052407;28;20371;-54
2023/07/09 00:44:21;;;;;;;;;;;26.30;54.30;;;;;;5052380;28;19908;-54
2023/07/09 00:46:47;;;;;;;;;;;26.30;54.30;;;;;;5051601;28;19925;-54
2023/07/09 00:49:16;;;;;;;;;;;26.30;54.20;;;;;;5070631;28;19912;-54
2023/07/09 00:51:43;;;;;;;;;;;26.30;54.40;;;;;;5054517;28;19944;-55
2023/07/09 00:54:14;;;;;;;;;;;26.30;54.30;;;;;;5066909;28;20431;-55
2023/07/09 00:56:40;;;;;;;;;;;26.30;54.20;;;;;;5060615;28;19920;-54
2023/07/09 00:59:06;;;;;;;;;;;26.20;54.80;;;;;;5069521;28;19995;-54
2023/07/09 01:01:32;;;;;;;;;;;26.30;54.30;;;;;;5071830;28;19909;-54
2023/07/09 01:03:59;;;;;;;;;;;26.30;54.30;;;;;;5062093;28;20292;-54
2023/07/09 01:06:32;;;;;;;;;;;26.20;54.10;;;;;;5071814;28;19919;-54
2023/07/09 01:08:58;;;;;;;;;;;26.20;54.20;;;;;;5064931;28;19921;-54
2023/07/09 01:11:24;;;;;;;;;;;26.20;54.30;;;;;;5068721;28;20343;-54
2023/07/09 01:13:51;;;;;;;;;;;26.20;54.10;;;;;;5056811;28;19920;-55
2023/07/09 01:16:17;;;;;;;;;;;26.20;54.90;;;;;;5066463;28;19912;-54
2023/07/09 01:18:43;;;;;;;;;;;26.20;54.20;;;;;;5072406;28;19982;-55
2023/07/09 01:21:15;;;;;;;;;;;26.20;54.20;;;;;;5057517;28;19913;-54
2023/07/09 01:23:44;;;;;;;;;;;26.20;54.20;;;;;;5056438;28;19912;-54
2023/07/09 01:26:13;;;;;;;;;;;26.20;54.20;;;;;;5064311;28;19979;-54
2023/07/09 01:28:41;;;;;;;;;;;26.20;54.20;;;;;;5051926;28;19913;-55
2023/07/09 01:31:07;;;;;;;;;;;26.20;54.10;;;;;;5051916;28;20385;-54
2023/07/09 01:33:33;;;;;;;;;;;26.20;54.10;;;;;;5053783;28;19975;-54
2023/07/09 01:36:00;;;;;;;;;;;26.20;54.20;;;;;;5071453;28;19912;-55
2023/07/09 01:38:30;;;;;;;;;;;26.20;54.10;;;;;;5049521;28;20356;-54
2023/07/09 01:40:59;;;;;;;;;;;26.20;54.20;;;;;;5070421;28;19999;-54
2023/07/09 01:43:25;;;;;;;;;;;26.20;54.10;;;;;;5064471;28;19958;-54
2023/07/09 01:45:51;;;;;;;;;;;26.20;54.00;;;;;;5059063;28;19920;-54
2023/07/09 01:48:17;;;;;;;;;;;26.20;54.10;;;;;;5071453;28;20357;-54
2023/07/09 01:50:43;;;;;;;;;;;26.20;54.00;;;;;;5064101;28;19916;-54
2023/07/09 01:53:11;;;;;;;;;;;26.20;54.00;;;;;;5060063;28;19969;-54
2023/07/09 01:55:37;;;;;;;;;;;26.10;53.90;;;;;;5051066;28;19913;-54
2023/07/09 01:58:06;;;;;;;;;;;26.20;53.90;;;;;;5057138;28;19923;-55
2023/07/09 02:00:32;;;;;;;;;;;26.20;53.90;;;;;;5066963;28;19921;-55
2023/07/09 02:03:00;;;;;;;;;;;26.10;54.00;;;;;;5068637;28;20003;-54
2023/07/09 02:05:26;;;;;;;;;;;26.10;54.00;;;;;;5071712;28;20357;-54
2023/07/09 02:07:51;;;;;;;;;;;26.10;54.00;;;;;;5051149;28;20465;-55
2023/07/09 02:10:17;;;;;;;;;;;26.10;53.90;;;;;;5053306;28;20031;-54
2023/07/09 02:12:42;;;;;;;;;;;26.10;54.00;;;;;;5052597;28;20361;-55
2023/07/09 02:15:08;;;;;;;;;;;26.10;53.80;;;;;;5075267;28;19912;-55
2023/07/09 02:17:33;;;;;;;;;;;26.10;54.00;;;;;;5073031;28;19909;-55
2023/07/09 02:19:59;;;;;;;;;;;26.10;53.90;;;;;;5069675;28;19914;-54
2023/07/09 02:22:24;;;;;;;;;;;26.10;54.00;;;;;;5063271;28;19919;-54
2023/07/09 02:24:52;;;;;;;;;;;26.10;53.90;;;;;;5062714;28;19947;-54
2023/07/09 02:27:18;;;;;;;;;;;26.10;54.00;;;;;;5074900;28;19920;-55
2023/07/09 02:29:44;;;;;;;;;;;26.10;53.80;;;;;;5055852;28;19920;-54
2023/07/09 02:32:09;;;;;;;;;;;26.10;53.90;;;;;;5073437;28;19909;-54
2023/07/09 02:34:35;;;;;;;;;;;26.10;53.90;;;;;;5074718;28;19909;-55
2023/07/09 02:37:00;;;;;;;;;;;26.10;53.90;;;;;;5055482;28;19975;-55
2023/07/09 02:39:27;;;;;;;;;;;26.00;53.90;;;;;;5074165;28;20397;-55
2023/07/09 02:41:52;;;;;;;;;;;26.10;54.00;;;;;;5058519;28;20007;-54
2023/07/09 02:44:17;;;;;;;;;;;26.00;53.90;;;;;;5074704;28;20442;-55
2023/07/09 02:46:43;;;;;;;;;;;26.00;53.70;;;;;;5070903;28;20064;-54
2023/07/09 02:49:09;;;;;;;;;;;26.00;53.60;;;;;;5055870;28;19912;-54
2023/07/09 02:51:35;;;;;;;;;;;26.00;53.90;;;;;;5053997;28;20384;-55
2023/07/09 02:54:01;;;;;;;;;;;26.00;54.30;;;;;;5062437;28;19916;-54
2023/07/09 02:56:26;;;;;;;;;;;26.00;53.70;;;;;;5074309;28;20368;-54
2023/07/09 02:58:52;;;;;;;;;;;26.00;53.60;;;;;;5067372;28;19943;-54
2023/07/09 03:01:18;;;;;;;;;;;26.00;53.70;;;;;;5074378;28;19917;-54
2023/07/09 03:03:43;;;;;;;;;;;26.00;53.70;;;;;;5072977;28;19966;-55
2023/07/09 03:06:08;;;;;;;;;;;26.00;53.70;;;;;;5054793;28;20308;-54
2023/07/09 03:08:34;;;;;;;;;;;26.00;53.60;;;;;;5069192;28;19919;-54
2023/07/09 03:11:00;;;;;;;;;;;26.00;53.60;;;;;;5060996;28;19912;-54
2023/07/09 03:13:25;;;;;;;;;;;25.90;53.60;;;;;;5053959;28;19913;-54
2023/07/09 03:15:57;;;;;;;;;;;25.90;53.60;;;;;;5067577;28;19935;-54
2023/07/09 03:18:22;;;;;;;;;;;25.90;53.60;;;;;;5054977;28;19920;-54
2023/07/09 03:20:48;;;;;;;;;;;25.90;53.60;;;;;;5057744;28;19924;-55
2023/07/09 03:23:13;;;;;;;;;;;25.90;53.60;;;;;;5066052;28;19913;-54
2023/07/09 03:25:42;;;;;;;;;;;25.90;53.60;;;;;;5072530;28;19920;-54
2023/07/09 03:28:07;;;;;;;;;;;25.90;53.50;;;;;;5066439;28;20518;-54
2023/07/09 03:30:33;;;;;;;;;;;25.90;53.60;;;;;;5073800;28;20003;-54
2023/07/09 03:33:00;;;;;;;;;;;25.90;53.50;;;;;;5070963;28;19932;-54
2023/07/09 03:35:25;;;;;;;;;;;25.90;53.30;;;;;;5072548;28;19917;-54
2023/07/09 03:37:51;;;;;;;;;;;25.90;53.40;;;;;;5065872;28;20289;-54
2023/07/09 03:40:20;;;;;;;;;;;25.90;53.30;;;;;;5063466;28;19955;-54
2023/07/09 03:42:45;;;;;;;;;;;25.90;53.30;;;;;;5072052;28;19970;-54
2023/07/09 03:45:11;;;;;;;;;;;25.90;53.20;;;;;;5064364;28;19963;-54
2023/07/09 03:47:36;;;;;;;;;;;25.90;53.60;;;;;;5053330;28;19909;-54
2023/07/09 03:50:02;;;;;;;;;;;25.90;53.20;;;;;;5051363;28;19917;-54
2023/07/09 03:52:28;;;;;;;;;;;25.90;53.30;;;;;;5062648;28;20405;-55
2023/07/09 03:54:53;;;;;;;;;;;25.90;53.10;;;;;;5068609;28;19999;-54
2023/07/09 03:57:18;;;;;;;;;;;25.90;53.20;;;;;;5062486;28;19935;-55
2023/07/09 03:59:44;;;;;;;;;;;25.90;53.10;;;;;;5073193;28;19915;-54
2023/07/09 04:02:10;;;;;;;;;;;25.90;53.20;;;;;;5058360;28;19955;-54
2023/07/09 04:04:35;;;;;;;;;;;25.90;53.30;;;;;;5069905;28;19913;-54
2023/07/09 04:07:01;;;;;;;;;;;25.90;53.10;;;;;;5071269;28;19923;-54
2023/07/09 04:09:26;;;;;;;;;;;25.90;53.10;;;;;;5065861;28;20230;-55
2023/07/09 04:11:52;;;;;;;;;;;25.80;53.00;;;;;;5072387;28;20007;-54
2023/07/09 04:14:17;;;;;;;;;;;25.80;52.90;;;;;;5068586;28;19924;-55
2023/07/09 04:16:43;;;;;;;;;;;25.80;52.90;;;;;;5072784;28;20475;-54
2023/07/09 04:19:08;;;;;;;;;;;25.80;52.90;;;;;;5068368;28;20296;-55
2023/07/09 04:21:34;;;;;;;;;;;25.80;52.90;;;;;;5055456;28;19962;-54
2023/07/09 04:23:59;;;;;;;;;;;25.80;52.90;;;;;;5052466;28;19959;-54
2023/07/09 04:26:25;;;;;;;;;;;25.80;53.00;;;;;;5052135;28;19913;-54
2023/07/09 04:28:50;;;;;;;;;;;25.80;52.90;;;;;;5052540;28;20012;-55
2023/07/09 04:31:15;;;;;;;;;;;25.80;52.90;;;;;;5065152;28;20687;-55
2023/07/09 04:33:43;;;;;;;;;;;25.80;53.00;;;;;;5071280;28;20303;-54
2023/07/09 04:36:08;;;;;;;;;;;25.80;52.80;;;;;;5071457;28;19916;-55
2023/07/09 04:38:34;;;;;;;;;;;25.80;52.80;;;;;;5052156;28;20004;-54
2023/07/09 04:40:59;;;;;;;;;;;25.80;52.80;;;;;;5052648;28;20301;-54
2023/07/09 04:43:25;;;;;;;;;;;25.80;52.80;;;;;;5057155;28;20003;-54
2023/07/09 04:45:50;;;;;;;;;;;25.80;52.80;;;;;;5072282;28;19927;-55
2023/07/09 04:48:16;;;;;;;;;;;25.80;52.80;;;;;;5066879;28;20404;-54
2023/07/09 04:50:41;;;;;;;;;;;25.70;52.80;;;;;;5069591;28;19970;-54
2023/07/09 04:53:07;;;;;;;;;;;25.80;52.80;;;;;;5060271;28;20341;-55
2023/07/09 04:55:33;;;;;;;;;;;25.80;52.80;;;;;;5060925;28;20596;-54
2023/07/09 04:57:58;;;;;;;;;;;25.80;52.80;;;;;;5072181;28;19916;-54
2023/07/09 05:00:24;;;;;;;;;;;25.70;52.80;;;;;;5065608;28;19919;-54
2023/07/09 05:02:49;;;;;;;;;;;25.70;52.70;;;;;;5058497;28;20319;-54
2023/07/09 05:05:15;;;;;;;;;;;25.70;52.90;;;;;;5051458;28;19909;-54
2023/07/09 05:07:41;;;;;;;;;;;25.80;52.80;;;;;;5051322;28;19908;-54
2023/07/09 05:10:07;;;;;;;;;;;25.70;52.50;;;;;;5052505;28;19989;-54
2023/07/09 05:12:32;;;;;;;;;;;25.80;52.60;;;;;;5058553;28;19955;-54
2023/07/09 05:14:58;;;;;;;;;;;25.70;52.50;;;;;;5072308;28;20297;-54
2023/07/09 05:17:23;;;;;;;;;;;25.70;52.50;;;;;;5058887;28;19913;-54
2023/07/09 05:19:49;;;;;;;;;;;25.70;52.40;;;;;;5065482;28;19912;-54
2023/07/09 05:22:14;;;;;;;;;;;25.70;52.30;;;;;;5071832;28;19931;-54
2023/07/09 05:24:41;;;;;;;;;;;25.70;52.40;;;;;;5064654;28;20269;-54
2023/07/09 05:27:06;;;;;;;;;;;25.70;52.30;;;;;;5072098;28;19908;-55
2023/07/09 05:29:32;;;;;;;;;;;25.70;53.10;;;;;;5063664;28;19913;-54
2023/07/09 05:31:57;;;;;;;;;;;25.70;52.40;;;;;;5065902;28;19921;-54
2023/07/09 05:34:22;;;;;;;;;;;25.70;52.40;;;;;;5068884;28;19966;-54
2023/07/09 05:36:48;;;;;;;;;;;25.70;52.40;;;;;;5065558;28;19939;-56
2023/07/09 05:39:13;;;;;;;;;;;25.70;52.40;;;;;;5050032;28;19916;-54
2023/07/09 05:41:39;;;;;;;;;;;25.70;52.40;;;;;;5054823;28;19983;-55
2023/07/09 05:44:04;;;;;;;;;;;25.70;52.30;;;;;;5051891;28;20369;-54
2023/07/09 05:46:33;;;;;;;;;;;25.70;52.30;;;;;;5058112;28;20301;-54
2023/07/09 05:48:58;;;;;;;;;;;25.70;52.30;;;;;;5036318;28;19963;-55
2023/07/09 05:51:26;;;;;;;;;;;25.70;52.30;;;;;;5053995;28;20280;-55
2023/07/09 05:53:51;;;;;;;;;;;25.70;52.30;;;;;;5060649;28;19923;-55
2023/07/09 05:56:17;;;;;;;;;;;25.70;52.20;;;;;;5075485;28;20031;-55
2023/07/09 05:58:42;;;;;;;;;;;25.70;52.20;;;;;;5064818;28;19921;-54
2023/07/09 06:01:07;;;;;;;;;;;25.70;52.20;;;;;;5062823;28;19921;-55
2023/07/09 06:03:33;;;;;;;;;;;25.70;52.20;;;;;;5071547;28;19912;-54
2023/07/09 06:05:59;;;;;;;;;;;25.70;52.20;;;;;;5074272;28;20292;-54
2023/07/09 06:08:26;;;;;;;;;;;25.70;52.20;;;;;;5073408;28;19912;-55
2023/07/09 06:10:56;;;;;;;;;;;25.70;52.20;;;;;;5066220;28;19919;-54
2023/07/09 06:13:21;;;;;;;;;;;25.70;52.10;;;;;;5062623;28;19920;-54
2023/07/09 06:15:48;;;;;;;;;;;25.70;52.10;;;;;;5055590;28;19913;-54
2023/07/09 06:18:13;;;;;;;;;;;25.70;52.10;;;;;;5056553;28;19962;-54
2023/07/09 06:20:38;;;;;;;;;;;25.70;52.10;;;;;;5070650;28;20011;-54
2023/07/09 06:23:04;;;;;;;;;;;25.70;52.00;;;;;;5070130;28;19913;-55
2023/07/09 06:25:29;;;;;;;;;;;25.70;52.00;;;;;;5073896;28;20357;-54
2023/07/09 06:27:55;;;;;;;;;;;25.80;52.10;;;;;;5063695;28;20381;-54
2023/07/09 06:30:20;;;;;;;;;;;25.70;52.00;;;;;;5055330;28;20272;-54
2023/07/09 06:32:46;;;;;;;;;;;25.70;52.10;;;;;;5054483;28;20324;-55
2023/07/09 06:35:11;;;;;;;;;;;25.80;52.10;;;;;;5074887;28;20328;-54
2023/07/09 06:37:36;;;;;;;;;;;25.80;52.10;;;;;;5062125;28;19931;-56
2023/07/09 06:40:04;;;;;;;;;;;25.70;51.90;;;;;;5064712;28;19977;-55
2023/07/09 06:42:29;;;;;;;;;;;25.70;52.00;;;;;;5054534;28;19909;-54
2023/07/09 06:44:56;;;;;;;;;;;25.80;52.10;;;;;;5059361;28;19938;-54
2023/07/09 06:47:21;;;;;;;;;;;25.80;52.10;;;;;;5074685;28;19905;-54
2023/07/09 06:49:46;;;;;;;;;;;25.80;52.00;;;;;;5062517;28;19919;-55
2023/07/09 06:52:12;;;;;;;;;;;25.80;52.10;;;;;;5054697;28;19916;-54
2023/07/09 06:54:37;;;;;;;;;;;25.80;52.20;;;;;;5053917;28;19993;-55
2023/07/09 06:57:03;;;;;;;;;;;25.80;52.10;;;;;;5063076;28;19943;-54
2023/07/09 06:59:28;;;;;;;;;;;25.80;52.10;;;;;;5073430;28;20026;-54
2023/07/09 07:01:54;;;;;;;;;;;25.80;52.20;;;;;;5063664;28;19959;-54
2023/07/09 07:04:19;;;;;;;;;;;25.80;52.20;;;;;;5065742;28;20273;-54
2023/07/09 07:06:45;;;;;;;;;;;25.80;52.20;;;;;;5060061;28;19936;-54
2023/07/09 07:09:10;;;;;;;;;;;25.80;51.90;;;;;;5053735;28;19909;-54
2023/07/09 07:11:36;;;;;;;;;;;25.80;52.20;;;;;;5068287;28;19908;-54
2023/07/09 07:14:01;;;;;;;;;;;25.80;52.20;;;;;;5059542;28;19917;-54
2023/07/09 07:16:26;;;;;;;;;;;25.80;52.30;;;;;;5066626;28;19912;-54
2023/07/09 07:18:52;;;;;;;;;;;25.80;52.20;;;;;;5057725;28;20083;-55
2023/07/09 07:21:17;;;;;;;;;;;25.80;52.20;;;;;;5070638;28;19923;-54
2023/07/09 07:23:43;;;;;;;;;;;25.70;52.20;;;;;;5053645;28;20266;-54
2023/07/09 07:26:08;;;;;;;;;;;25.80;52.20;;;;;;5055624;28;19920;-55
2023/07/09 07:28:34;;;;;;;;;;;25.80;52.20;;;;;;5072132;28;19988;-54
2023/07/09 07:31:00;;;;;;;;;;;25.80;52.20;;;;;;5073913;28;20372;-55
2023/07/09 07:33:26;;;;;;;;;;;25.80;52.20;;;;;;5054709;28;20392;-54
2023/07/09 07:35:51;;;;;;;;;;;25.80;52.10;;;;;;5059022;28;19913;-54
2023/07/09 07:38:17;;;;;;;;;;;25.80;52.20;;;;;;5062620;28;19913;-55
2023/07/09 07:40:45;;;;;;;;;;;25.80;52.10;;;;;;5070395;28;20446;-54
2023/07/09 07:43:10;;;;;;;;;;;25.80;51.90;;;;;;5053479;28;19916;-54
2023/07/09 07:45:40;;;;;;;;;;;25.80;52.20;;;;;;5063648;28;19920;-54
2023/07/09 07:48:05;;;;;;;;;;;25.80;52.00;;;;;;5055780;28;20013;-54
2023/07/09 07:50:30;;;;;;;;;;;25.80;51.90;;;;;;5064433;28;20009;-54
2023/07/09 07:52:56;;;;;;;;;;;25.80;52.00;;;;;;5063548;28;19945;-54
2023/07/09 07:55:21;;;;;;;;;;;25.80;52.00;;;;;;5054684;28;19913;-55
2023/07/09 07:57:47;;;;;;;;;;;25.80;51.70;;;;;;5073085;28;19912;-55
2023/07/09 08:00:12;;;;;;;;;;;25.80;50.90;;;;;;5072430;28;19918;-54
2023/07/09 08:02:38;;;;;;;;;;;25.80;50.80;;;;;;5053040;28;19983;-55
2023/07/09 08:05:05;;;;;;;;;;;25.80;50.90;;;;;;5061651;28;20015;-55
2023/07/09 08:07:30;;;;;;;;;;;25.90;51.00;;;;;;5055575;28;19966;-55
2023/07/09 08:09:56;;;;;;;;;;;25.90;51.00;;;;;;5053038;28;19909;-53
2023/07/09 08:12:21;;;;;;;;;;;25.90;50.50;;;;;;5052442;28;19913;-55
2023/07/09 08:14:47;;;;;;;;;;;25.90;50.70;;;;;;5051266;28;19959;-55
2023/07/09 08:17:12;;;;;;;;;;;25.90;50.50;;;;;;5057124;28;19916;-55
2023/07/09 08:19:51;;;;;;;;;;;25.90;50.20;;;;;;5064992;28;19920;-52
2023/07/09 08:22:17;;;;;;;;;;;26.00;50.10;;;;;;5069461;28;19913;-55
2023/07/09 08:24:42;;;;;;;;;;;26.00;49.80;;;;;;5066811;28;19916;-55
2023/07/09 08:27:08;;;;;;;;;;;26.00;50.30;;;;;;5071491;28;19948;-55
2023/07/09 08:29:34;;;;;;;;;;;26.00;50.60;;;;;;5068116;28;19920;-55
2023/07/09 08:31:59;;;;;;;;;;;26.10;50.30;;;;;;5068521;28;19913;-55
2023/07/09 08:34:25;;;;;;;;;;;26.10;50.30;;;;;;5061984;28;19970;-55
2023/07/09 08:36:50;;;;;;;;;;;26.10;50.50;;;;;;5064762;28;19912;-55
2023/07/09 08:39:16;;;;;;;;;;;26.20;50.60;;;;;;5072079;28;19915;-54
2023/07/09 08:41:47;;;;;;;;;;;26.20;50.60;;;;;;5061593;28;19920;-54
2023/07/09 08:44:17;;;;;;;;;;;26.20;50.50;;;;;;5051520;28;19916;-55
2023/07/09 08:46:58;;;;;;;;;;;26.20;50.60;;;;;;5050179;28;19925;-55
2023/07/09 08:49:28;;;;;;;;;;;26.20;50.70;;;;;;5059258;28;20320;-54
2023/07/09 08:51:54;;;;;;;;;;;26.30;50.80;;;;;;5050713;28;20001;-55
2023/07/09 08:54:25;;;;;;;;;;;26.30;50.60;;;;;;5061418;28;19966;-55
2023/07/09 08:56:50;;;;;;;;;;;26.30;50.50;;;;;;5070845;28;19955;-55
2023/07/09 08:59:16;;;;;;;;;;;26.30;51.40;;;;;;5065348;28;20372;-55
2023/07/09 09:01:50;;;;;;;;;;;26.40;50.90;;;;;;5072121;28;20022;-55
2023/07/09 09:04:22;;;;;;;;;;;26.40;51.10;;;;;;5066304;28;20015;-55
2023/07/09 09:06:50;;;;;;;;;;;26.40;51.10;;;;;;5070686;28;20373;-55
2023/07/09 09:09:35;;;;;;;;;;;26.40;50.90;;;;;;5057032;28;19913;-55
2023/07/09 09:12:04;;;;;;;;;;;26.40;51.10;;;;;;5052485;28;19956;-55
2023/07/09 09:14:39;;;;;;;;;;;26.50;51.00;;;;;;5050788;28;20019;-55
2023/07/09 09:17:09;;;;;;;;;;;26.50;50.90;;;;;;5050925;28;19978;-55
2023/07/09 09:19:42;;;;;;;;;;;26.60;51.00;;;;;;5064235;28;20357;-54
2023/07/09 09:22:08;;;;;;;;;;;26.60;51.00;;;;;;5062406;28;19916;-55
2023/07/09 09:24:35;;;;;;;;;;;26.60;50.80;;;;;;5055229;28;20427;-54
2023/07/09 09:27:00;;;;;;;;;;;26.60;50.90;;;;;;5055368;28;19912;-54
2023/07/09 09:29:26;;;;;;;;;;;26.60;51.00;;;;;;5058411;28;19938;-55
2023/07/09 09:31:54;;;;;;;;;;;26.60;51.20;;;;;;5059066;28;19912;-55
2023/07/09 09:34:21;;;;;;;;;;;26.60;51.10;;;;;;5063524;28;19948;-55
2023/07/09 09:36:46;;;;;;;;;;;26.60;51.10;;;;;;5075395;28;19951;-55
2023/07/09 09:39:12;;;;;;;;;;;26.60;51.20;;;;;;5068665;28;20347;-55
2023/07/09 09:41:37;;;;;;;;;;;26.60;51.30;;;;;;5059029;28;19917;-55
2023/07/09 09:44:04;;;;;;;;;;;26.60;51.00;;;;;;5074591;28;19920;-55
2023/07/09 09:46:30;;;;;;;;;;;26.70;51.10;;;;;;5069722;28;19927;-55
2023/07/09 09:48:58;;;;;;;;;;;26.70;51.10;;;;;;5075741;28;19971;-55
2023/07/09 09:51:24;;;;;;;;;;;26.70;51.20;;;;;;5067467;28;20349;-54
2023/07/09 09:53:50;;;;;;;;;;;26.80;51.20;;;;;;5075043;28;19913;-55
2023/07/09 09:56:28;;;;;;;;;;;26.70;51.20;;;;;;5071142;28;19913;-54
2023/07/09 09:58:54;;;;;;;;;;;26.80;51.20;;;;;;5055601;28;19951;-54
2023/07/09 10:01:27;;;;;;;;;;;26.80;51.00;;;;;;5056293;28;19913;-54
2023/07/09 10:03:54;;;;;;;;;;;26.80;51.10;;;;;;5054056;28;19912;-54
2023/07/09 10:06:21;;;;;;;;;;;26.90;50.70;;;;;;5072237;28;19923;-54
2023/07/09 10:09:05;;;;;;;;;;;27.00;50.40;;;;;;5067122;28;19912;-54
2023/07/09 10:11:32;;;;;;;;;;;27.00;50.60;;;;;;5067599;28;19921;-54
2023/07/09 10:14:00;;;;;;;;;;;27.00;50.50;;;;;;5057457;28;19916;-55
2023/07/09 10:16:30;;;;;;;;;;;27.10;50.40;;;;;;5055088;28;19908;-54
2023/07/09 10:18:59;;;;;;;;;;;27.10;50.20;;;;;;5060688;28;19936;-54
2023/07/09 10:21:31;;;;;;;;;;;27.20;50.00;;;;;;5071425;28;19913;-55
2023/07/09 10:24:13;;;;;;;;;;;27.20;50.00;;;;;;5061436;28;20278;-54
2023/07/09 10:26:46;;;;;;;;;;;27.20;50.30;;;;;;5060577;28;19963;-55
2023/07/09 10:29:20;;;;;;;;;;;27.20;50.10;;;;;;5072885;28;19912;-54
2023/07/09 10:31:48;;;;;;;;;;;27.20;50.40;;;;;;5057395;28;19912;-55
2023/07/09 10:34:20;;;;;;;;;;;27.20;50.60;;;;;;5073642;28;19913;-54
2023/07/09 10:36:58;;;;;;;;;;;27.20;50.20;;;;;;5070089;28;19955;-54
2023/07/09 10:39:24;;;;;;;;;;;27.20;50.60;;;;;;5054205;28;19916;-54
2023/07/09 10:41:49;;;;;;;;;;;27.30;50.30;;;;;;5064493;28;19935;-55
2023/07/09 10:44:22;;;;;;;;;;;27.30;50.40;;;;;;5056840;28;19928;-54
2023/07/09 10:46:49;;;;;;;;;;;27.30;50.40;;;;;;5053245;28;20439;-55
2023/07/09 10:49:14;;;;;;;;;;;27.30;50.40;;;;;;5055968;28;20365;-54
2023/07/09 10:51:42;;;;;;;;;;;27.30;50.40;;;;;;5054031;28;19995;-55
2023/07/09 10:54:22;;;;;;;;;;;27.30;50.40;;;;;;5053526;28;19926;-54
2023/07/09 10:56:48;;;;;;;;;;;27.40;50.10;;;;;;5062257;28;19916;-54
2023/07/09 10:59:20;;;;;;;;;;;27.40;50.10;;;;;;5053138;28;19916;-55
2023/07/09 11:01:47;;;;;;;;;;;27.50;50.10;;;;;;5062493;28;20012;-55
2023/07/09 11:04:28;;;;;;;;;;;27.40;50.10;;;;;;5074264;28;19908;-55
2023/07/09 11:06:54;;;;;;;;;;;27.50;50.20;;;;;;5061373;28;19917;-56
2023/07/09 11:09:26;;;;;;;;;;;27.50;50.20;;;;;;5051050;28;20365;-54
2023/07/09 11:11:53;;;;;;;;;;;27.60;49.90;;;;;;5053195;28;19913;-54
2023/07/09 11:14:24;;;;;;;;;;;27.60;49.90;;;;;;5052834;28;19921;-54
2023/07/09 11:16:49;;;;;;;;;;;27.60;49.80;;;;;;5051687;28;19943;-55
2023/07/09 11:19:16;;;;;;;;;;;27.70;49.70;;;;;;5054873;28;19909;-54
2023/07/09 11:21:57;;;;;;;;;;;27.70;49.90;;;;;;5072315;28;20434;-54
2023/07/09 11:24:41;;;;;;;;;;;27.70;50.20;;;;;;5057566;28;20385;-54
2023/07/09 11:27:15;;;;;;;;;;;27.70;50.30;;;;;;5053820;28;20361;-54
2023/07/09 11:29:45;;;;;;;;;;;27.70;50.00;;;;;;5066775;28;19936;-55
2023/07/09 11:32:12;;;;;;;;;;;27.80;50.20;;;;;;5073620;28;19920;-54
2023/07/09 11:34:44;;;;;;;;;;;27.80;50.20;;;;;;5052062;28;19995;-54
2023/07/09 11:37:11;;;;;;;;;;;27.80;50.10;;;;;;5071913;28;19909;-54
2023/07/09 11:39:36;;;;;;;;;;;27.90;49.80;;;;;;5063066;28;19909;-54
2023/07/09 11:42:02;;;;;;;;;;;27.90;50.00;;;;;;5064264;28;20415;-54
2023/07/09 11:44:29;;;;;;;;;;;27.90;49.40;;;;;;5070523;28;19914;-54
2023/07/09 11:46:59;;;;;;;;;;;28.00;48.20;;;;;;5066295;28;19985;-54
2023/07/09 11:49:26;;;;;;;;;;;28.10;48.60;;;;;;5069042;28;19917;-54
2023/07/09 11:51:52;;;;;;;;;;;28.00;49.50;;;;;;5051202;28;19960;-54
2023/07/09 11:54:18;;;;;;;;;;;28.00;48.70;;;;;;5067965;28;19916;-54
2023/07/09 11:56:52;;;;;;;;;;;28.10;48.40;;;;;;5073034;28;19908;-55
2023/07/09 11:59:18;;;;;;;;;;;28.20;47.20;;;;;;5059634;28;19920;-55
2023/07/09 12:01:44;;;;;;;;;;;28.20;46.70;;;;;;5054969;28;20282;-54
2023/07/09 12:04:15;;;;;;;;;;;28.30;47.00;;;;;;5053557;28;19936;-55
2023/07/09 12:06:41;;;;;;;;;;;28.30;47.50;;;;;;5051089;28;19913;-54
2023/07/09 12:09:08;;;;;;;;;;;28.30;47.20;;;;;;5066878;28;20270;-55
2023/07/09 12:11:35;;;;;;;;;;;28.30;47.40;;;;;;5066460;28;19945;-54
2023/07/09 12:14:01;;;;;;;;;;;28.30;47.90;;;;;;5072873;28;19920;-54
2023/07/09 12:16:30;;;;;;;;;;;28.20;48.00;;;;;;5065748;28;19971;-54
2023/07/09 12:18:55;;;;;;;;;;;28.30;47.40;;;;;;5071540;28;19912;-55
2023/07/09 12:21:22;;;;;;;;;;;28.30;47.10;;;;;;5064698;28;20296;-54
2023/07/09 12:23:47;;;;;;;;;;;28.50;46.00;;;;;;5070105;28;19912;-54
2023/07/09 12:26:13;;;;;;;;;;;28.40;46.50;;;;;;5072369;28;19936;-54
2023/07/09 12:28:39;;;;;;;;;;;28.30;46.50;;;;;;5062648;28;19947;-54
2023/07/09 12:31:04;;;;;;;;;;;28.40;46.70;;;;;;5052726;28;19908;-55
2023/07/09 12:33:29;;;;;;;;;;;28.40;46.10;;;;;;5051511;28;19923;-54
2023/07/09 12:35:58;;;;;;;;;;;28.40;46.30;;;;;;5052276;28;19919;-53
2023/07/09 12:38:25;;;;;;;;;;;28.40;46.00;;;;;;5050483;28;19913;-53
2023/07/09 12:40:50;;;;;;;;;;;28.40;46.70;;;;;;5062368;28;19987;-55
2023/07/09 12:43:34;;;;;;;;;;;28.30;46.60;;;;;;5053136;28;20024;-55
2023/07/09 12:46:00;;;;;;;;;;;28.30;46.60;;;;;;5052259;28;19921;-54
2023/07/09 12:48:26;;;;;;;;;;;28.30;46.20;;;;;;5051139;28;20269;-54
2023/07/09 12:50:53;;;;;;;;;;;28.30;46.30;;;;;;5057948;28;19912;-54
2023/07/09 12:53:22;;;;;;;;;;;28.30;46.50;;;;;;5059684;28;20241;-53
2023/07/09 12:55:49;;;;;;;;;;;28.40;46.70;;;;;;5052727;28;19999;-54
2023/07/09 12:58:22;;;;;;;;;;;28.30;46.90;;;;;;5050286;28;19995;-53
2023/07/09 13:00:51;;;;;;;;;;;28.40;46.60;;;;;;5067461;28;19916;-53
2023/07/09 13:03:18;;;;;;;;;;;28.40;47.00;;;;;;5050520;28;19913;-54
2023/07/09 13:05:53;;;;;;;;;;;28.40;45.80;;;;;;5052755;28;19916;-54
2023/07/09 13:08:19;;;;;;;;;;;28.50;45.50;;;;;;5058372;28;19923;-53
2023/07/09 13:10:44;;;;;;;;;;;28.60;45.50;;;;;;5071794;28;19908;-54
2023/07/09 13:13:10;;;;;;;;;;;28.60;45.00;;;;;;5065666;28;19917;-54
2023/07/09 13:15:48;;;;;;;;;;;28.60;45.90;;;;;;5050904;28;19982;-54
2023/07/09 13:18:14;;;;;;;;;;;28.50;45.80;;;;;;5051988;28;19912;-54
2023/07/09 13:20:43;;;;;;;;;;;28.50;46.30;;;;;;5062442;28;19919;-53
2023/07/09 13:23:09;;;;;;;;;;;28.50;45.90;;;;;;5066799;28;19923;-54
2023/07/09 13:25:36;;;;;;;;;;;28.50;46.30;;;;;;5062500;28;19916;-55
2023/07/09 13:28:01;;;;;;;;;;;28.60;46.30;;;;;;5068254;28;19924;-54
2023/07/09 13:30:27;;;;;;;;;;;28.60;46.40;;;;;;5065195;28;19913;-54
2023/07/09 13:32:52;;;;;;;;;;;28.60;45.60;;;;;;5069140;28;19939;-54
2023/07/09 13:35:18;;;;;;;;;;;28.70;46.00;;;;;;5069514;28;19964;-54
2023/07/09 13:37:44;;;;;;;;;;;28.70;45.90;;;;;;5061585;28;19916;-54
2023/07/09 13:40:10;;;;;;;;;;;28.70;46.20;;;;;;5071995;28;20360;-54
2023/07/09 13:42:36;;;;;;;;;;;28.80;45.90;;;;;;5064322;28;19921;-54
2023/07/09 13:45:01;;;;;;;;;;;28.70;46.30;;;;;;5051377;28;19979;-53
2023/07/09 13:47:27;;;;;;;;;;;28.70;46.20;;;;;;5063902;28;20384;-53
2023/07/09 13:49:53;;;;;;;;;;;28.70;46.50;;;;;;5067568;28;19917;-53
2023/07/09 13:52:19;;;;;;;;;;;28.70;45.40;;;;;;5067941;28;19912;-54
2023/07/09 13:54:47;;;;;;;;;;;28.90;45.40;;;;;;5061109;28;19912;-54
2023/07/09 13:57:16;;;;;;;;;;;28.80;44.50;;;;;;5071848;28;19923;-54
2023/07/09 13:59:42;;;;;;;;;;;28.90;44.50;;;;;;5066409;28;19909;-54
2023/07/09 14:02:19;;;;;;;;;;;28.80;45.40;;;;;;5066018;28;19917;-53
2023/07/09 14:04:44;;;;;;;;;;;28.90;45.00;;;;;;5068581;28;19916;-53
2023/07/09 14:07:31;;;;;;;;;;;28.90;44.30;;;;;;5053222;28;19913;-54
2023/07/09 14:09:57;;;;;;;;;;;28.90;44.70;;;;;;5053949;28;19952;-53
2023/07/09 14:12:22;;;;;;;;;;;28.90;45.00;;;;;;5057776;28;20416;-53
2023/07/09 14:14:49;;;;;;;;;;;28.80;45.30;;;;;;5074982;28;20014;-54